createdAt,value
2022-08-10T00:01:54.470Z,101453.50
2022-08-10T00:04:23.260Z,101463.66
2022-08-10T00:06:52.581Z,101468.63
2022-08-10T00:09:20.799Z,101455.78
2022-08-10T00:11:51.992Z,101466.28
2022-08-10T00:17:08.748Z,101465.94
2022-08-10T00:20:03.223Z,101461.59
2022-08-10T00:22:32.844Z,101454.66
2022-08-10T00:25:05.750Z,101461.72
2022-08-10T00:28:00.823Z,101463.88
2022-08-10T00:30:34.507Z,101457.25
2022-08-10T00:33:02.685Z,101455.25
2022-08-10T00:35:34.104Z,101463.16
2022-08-10T00:38:05.881Z,101448.31
2022-08-10T00:40:37.544Z,101452.06
2022-08-10T00:43:07.694Z,101452.50
2022-08-10T00:45:36.307Z,101441.56
2022-08-10T00:48:06.551Z,101445.44
2022-08-10T00:50:39.529Z,101448.28
2022-08-10T00:53:11.113Z,101438.88
2022-08-10T00:57:10.092Z,101441.56
2022-08-10T00:58:35.083Z,101436.84
2022-08-10T01:01:03.147Z,101434.03
2022-08-10T01:04:36.206Z,101433.31
2022-08-10T01:06:27.230Z,101436.97
2022-08-10T01:09:00.330Z,101429.22
2022-08-10T01:12:38.353Z,101432.84
2022-08-10T01:14:29.324Z,101436.97
2022-08-10T01:17:08.231Z,101431.41
2022-08-10T01:19:49.626Z,101423.19
2022-08-10T01:22:39.790Z,101430.00
2022-08-10T01:25:28.393Z,101437.91
2022-08-10T01:28:04.176Z,101428.94
2022-08-10T01:30:36.932Z,101431.31
2022-08-10T01:33:07.676Z,101440.72
2022-08-10T01:35:44.747Z,101427.75
2022-08-10T01:38:16.755Z,101430.72
2022-08-10T01:40:53.705Z,101427.41
2022-08-10T01:43:23.093Z,101434.91
2022-08-10T01:46:00.213Z,101426.78
2022-08-10T01:48:31.499Z,101430.94
2022-08-10T01:51:09.035Z,101430.22
2022-08-10T01:53:41.788Z,101438.22
2022-08-10T01:56:14.650Z,101435.16
2022-08-10T01:58:44.069Z,101436.69
2022-08-10T02:01:17.191Z,101439.34
2022-08-10T02:04:01.264Z,101435.22
2022-08-10T02:06:35.479Z,101439.88
2022-08-10T02:09:06.235Z,101439.88
2022-08-10T02:12:05.079Z,101442.84
2022-08-10T02:14:23.418Z,101457.00
2022-08-10T02:16:53.410Z,101440.09
2022-08-10T02:19:23.946Z,101453.16
2022-08-10T02:22:36.818Z,101444.47
2022-08-10T02:24:47.109Z,101447.47
2022-08-10T02:27:14.882Z,101451.03
2022-08-10T02:29:43.566Z,101454.41
2022-08-10T02:32:36.395Z,101463.13
2022-08-10T02:35:22.057Z,101456.06
2022-08-10T02:37:51.807Z,101459.09
2022-08-10T02:45:15.616Z,101464.06
2022-08-10T02:45:19.723Z,101459.09
2022-08-10T02:46:11.086Z,101467.53
2022-08-10T02:48:43.440Z,101463.53
2022-08-10T02:51:16.333Z,101475.03
2022-08-10T02:53:55.385Z,101473.63
2022-08-10T02:56:30.219Z,101480.44
2022-08-10T02:59:03.811Z,101474.22
2022-08-10T03:01:33.651Z,101483.81
2022-08-10T03:04:06.020Z,101481.81
2022-08-10T03:06:37.801Z,101481.81
2022-08-10T03:09:09.036Z,101484.38
2022-08-10T03:12:35.994Z,101480.59
2022-08-10T03:14:27.138Z,101482.50
2022-08-10T03:16:56.275Z,101480.84
2022-08-10T03:20:34.419Z,101469.53
2022-08-10T03:22:15.419Z,101466.94
2022-08-10T03:24:44.974Z,101465.50
2022-08-10T03:27:13.561Z,101476.22
2022-08-10T03:30:30.034Z,101472.84
2022-08-10T03:32:30.073Z,101469.16
2022-08-10T03:35:00.450Z,101478.34
2022-08-10T03:37:28.632Z,101469.00
2022-08-10T03:39:56.527Z,101480.25
2022-08-10T03:42:24.752Z,101473.44
2022-08-10T03:44:53.753Z,101470.50
2022-08-10T03:47:21.508Z,101459.84
2022-08-10T03:49:49.788Z,101462.38
2022-08-10T03:52:20.020Z,101460.81
2022-08-10T03:54:51.576Z,101463.16
2022-08-10T03:57:19.473Z,101467.19
2022-08-10T03:59:47.754Z,101467.53
2022-08-10T04:02:43.419Z,101467.63
2022-08-10T04:05:03.753Z,101463.41
2022-08-10T04:07:33.251Z,101464.63
2022-08-10T04:10:01.199Z,101471.25
2022-08-10T04:12:30.881Z,101469.34
2022-08-10T04:14:58.509Z,101470.09
2022-08-10T04:17:57.081Z,101471.78
2022-08-10T04:20:19.714Z,101483.34
2022-08-10T04:22:53.004Z,101479.00
2022-08-10T04:25:21.492Z,101473.19
2022-08-10T04:27:49.924Z,101476.97
2022-08-10T04:30:18.187Z,101484.84
2022-08-10T04:32:48.495Z,101485.28
2022-08-10T04:35:18.390Z,101483.16
2022-08-10T04:37:47.520Z,101486.94
2022-08-10T04:40:28.547Z,101487.97
2022-08-10T04:43:02.199Z,101493.25
2022-08-10T04:45:48.361Z,101491.19
2022-08-10T04:48:40.073Z,101493.44
2022-08-10T04:51:11.267Z,101484.97
2022-08-10T04:54:05.494Z,101491.97
2022-08-10T04:56:34.874Z,101491.78
2022-08-10T04:59:02.391Z,101490.91
2022-08-10T05:02:09.968Z,101501.72
2022-08-10T05:04:34.934Z,101498.38
2022-08-10T05:07:05.308Z,101497.78
2022-08-10T05:09:32.868Z,101499.44
2022-08-10T05:12:01.676Z,101501.94
2022-08-10T05:14:29.134Z,101504.41
2022-08-10T05:16:56.590Z,101504.22
2022-08-10T05:20:04.559Z,101495.94
2022-08-10T05:22:12.035Z,101501.72
2022-08-10T05:24:39.887Z,101504.19
2022-08-10T05:27:10.664Z,101502.25
2022-08-10T05:29:41.256Z,101501.81
2022-08-10T05:32:09.103Z,101495.75
2022-08-10T05:34:37.058Z,101499.72
2022-08-10T05:37:05.504Z,101509.19
2022-08-10T05:39:33.998Z,101503.34
2022-08-10T05:42:02.946Z,101499.16
2022-08-10T05:44:32.376Z,101505.56
2022-08-10T05:47:00.655Z,101505.66
2022-08-10T05:49:28.745Z,101509.19
2022-08-10T05:51:57.421Z,101518.66
2022-08-10T05:54:26.843Z,101508.88
2022-08-10T05:56:58.335Z,101503.88
2022-08-10T06:00:12.680Z,101516.28
2022-08-10T06:02:32.806Z,101514.75
2022-08-10T06:05:07.434Z,101513.00
2022-08-10T06:07:36.597Z,101509.63
2022-08-10T06:10:04.582Z,101506.31
2022-08-10T06:12:55.646Z,101514.88
2022-08-10T06:15:51.944Z,101509.47
2022-08-10T06:18:14.937Z,101507.19
2022-08-10T06:20:43.000Z,101511.31
2022-08-10T06:23:11.142Z,101512.03
2022-08-10T06:26:09.554Z,101510.06
2022-08-10T06:28:26.892Z,101514.47
2022-08-10T06:30:55.591Z,101506.31
2022-08-10T06:33:25.242Z,101509.34
2022-08-10T06:35:54.965Z,101507.59
2022-08-10T06:38:22.836Z,101513.16
2022-08-10T06:40:50.862Z,101518.13
2022-08-10T06:43:19.829Z,101511.78
2022-08-10T06:46:07.622Z,101512.41
2022-08-10T06:48:41.199Z,101519.47
2022-08-10T06:51:14.742Z,101522.66
2022-08-10T06:53:53.501Z,101523.84
2022-08-10T06:56:37.668Z,101521.63
2022-08-10T06:59:13.412Z,101518.06
2022-08-10T07:01:51.755Z,101524.72
2022-08-10T07:04:32.404Z,101521.19
2022-08-10T07:07:03.143Z,101521.06
2022-08-10T07:09:32.962Z,101516.34
2022-08-10T07:12:08.182Z,101527.56
2022-08-10T07:14:38.827Z,101526.09
2022-08-10T07:17:07.064Z,101526.34
2022-08-10T07:19:36.061Z,101519.50
2022-08-10T07:23:01.649Z,101519.81
2022-08-10T07:25:08.139Z,101522.66
2022-08-10T07:27:39.173Z,101524.66
2022-08-10T07:30:23.530Z,101527.31
2022-08-10T07:32:52.079Z,101523.63
2022-08-10T07:35:22.020Z,101525.69
2022-08-10T07:37:50.886Z,101529.06
2022-08-10T07:40:21.423Z,101528.53
2022-08-10T07:42:50.761Z,101528.72
2022-08-10T07:45:18.225Z,101523.75
2022-08-10T07:47:54.456Z,101524.16
2022-08-10T07:50:26.264Z,101534.16
2022-08-10T07:52:56.081Z,101530.84
2022-08-10T07:56:07.800Z,101527.25
2022-08-10T07:58:11.513Z,101528.25
2022-08-10T08:00:40.341Z,101529.41
2022-08-10T08:03:09.287Z,101536.00
2022-08-10T08:05:59.204Z,101535.94
2022-08-10T08:08:26.132Z,101536.56
2022-08-10T08:10:57.005Z,101534.19
2022-08-10T08:13:26.051Z,101528.31
2022-08-10T08:16:16.767Z,101535.66
2022-08-10T08:18:45.738Z,101535.84
2022-08-10T08:24:04.584Z,101530.78
2022-08-10T08:24:31.730Z,101533.38
2022-08-10T08:27:01.964Z,101535.75
2022-08-10T08:29:30.598Z,101539.28
2022-08-10T08:32:01.745Z,101527.16
2022-08-10T08:34:30.587Z,101528.88
2022-08-10T08:37:00.641Z,101523.78
2022-08-10T08:39:28.275Z,101522.03
2022-08-10T08:42:09.619Z,101522.13
2022-08-10T08:44:50.368Z,101524.31
2022-08-10T08:48:03.639Z,101515.81
2022-08-10T08:50:33.776Z,101512.50
2022-08-10T08:53:21.889Z,101505.50
2022-08-10T08:56:07.132Z,101508.34
2022-08-10T08:58:46.775Z,101510.00
2022-08-10T09:01:38.290Z,101503.94
2022-08-10T09:04:24.464Z,101504.63
2022-08-10T09:08:00.730Z,101504.47
2022-08-10T09:10:18.498Z,101507.28
2022-08-10T09:12:52.791Z,101501.31
2022-08-10T09:15:40.019Z,101500.03
2022-08-10T09:18:13.837Z,101491.91
2022-08-10T09:20:43.800Z,101496.31
2022-08-10T09:23:17.448Z,101496.81
2022-08-10T09:25:51.775Z,101494.19
2022-08-10T09:28:26.824Z,101488.94
2022-08-10T09:36:25.760Z,101483.91
2022-08-10T09:36:45.584Z,101481.78
2022-08-10T09:40:12.686Z,101476.31
2022-08-10T09:42:14.754Z,101477.41
2022-08-10T09:44:57.318Z,101478.81
2022-08-10T09:47:59.948Z,101474.47
2022-08-10T09:50:59.040Z,101475.06
2022-08-10T09:53:23.330Z,101474.03
2022-08-10T09:56:17.915Z,101467.19
2022-08-10T09:59:47.341Z,101464.50
2022-08-10T10:02:00.667Z,101465.34
2022-08-10T10:04:40.395Z,101445.34
2022-08-10T10:07:09.953Z,101448.06
2022-08-10T10:09:42.423Z,101449.19
2022-08-10T10:12:20.133Z,101458.50
2022-08-10T10:15:24.454Z,101444.28
2022-08-10T10:18:10.983Z,101442.66
2022-08-10T10:20:42.171Z,101436.63
2022-08-10T10:23:33.943Z,101428.69
2022-08-10T10:26:15.913Z,101439.06
2022-08-10T10:31:47.033Z,101426.13
2022-08-10T10:34:18.625Z,101425.00
2022-08-10T10:36:46.871Z,101419.00
2022-08-10T10:39:15.737Z,101421.47
2022-08-10T10:41:56.160Z,101415.16
2022-08-10T10:44:42.727Z,101414.84
2022-08-10T10:47:30.783Z,101417.28
2022-08-10T10:50:04.986Z,101412.81
2022-08-10T10:52:41.987Z,101401.44
2022-08-10T10:55:15.632Z,101399.22
2022-08-10T10:57:58.467Z,101383.88
2022-08-10T11:00:32.767Z,101391.47
2022-08-10T11:03:13.154Z,101389.78
2022-08-10T11:05:47.220Z,101388.69
2022-08-10T11:08:19.387Z,101381.63
2022-08-10T11:11:01.864Z,101383.16
2022-08-10T11:14:27.631Z,101377.69
2022-08-10T11:16:43.274Z,101369.53
2022-08-10T11:19:18.282Z,101368.69
2022-08-10T11:22:06.642Z,101364.47
2022-08-10T11:24:48.748Z,101358.44
2022-08-10T11:27:23.009Z,101357.03
2022-08-10T11:30:00.238Z,101346.31
2022-08-10T11:32:36.132Z,101356.09
2022-08-10T11:35:13.647Z,101368.75
2022-08-10T11:38:29.592Z,101351.47
2022-08-10T11:40:38.459Z,101361.09
2022-08-10T11:43:12.077Z,101361.34
2022-08-10T11:45:52.077Z,101359.41
2022-08-10T11:48:53.356Z,101353.78
2022-08-10T11:51:20.798Z,101354.34
2022-08-10T11:53:51.393Z,101350.66
2022-08-10T11:56:26.216Z,101355.00
2022-08-10T11:59:16.848Z,101346.50
2022-08-10T12:01:45.590Z,101326.25
2022-08-10T12:04:13.309Z,101326.59
2022-08-10T12:06:55.115Z,101338.09
2022-08-10T12:10:06.757Z,101330.16
2022-08-10T12:12:13.267Z,101322.69
2022-08-10T12:14:45.969Z,101313.22
2022-08-10T12:17:17.317Z,101322.03
2022-08-10T12:20:02.422Z,101321.28
2022-08-10T12:22:37.424Z,101317.63
2022-08-10T12:25:08.794Z,101316.03
2022-08-10T12:27:40.267Z,101311.16
2022-08-10T12:30:09.567Z,101304.47
2022-08-10T12:32:43.354Z,101314.66
2022-08-10T12:35:22.643Z,101307.53
2022-08-10T12:38:05.818Z,101310.31
2022-08-10T12:40:38.664Z,101301.66
2022-08-10T12:44:03.688Z,101299.09
2022-08-10T12:46:06.729Z,101293.63
2022-08-10T12:48:37.536Z,101286.47
2022-08-10T12:51:08.762Z,101289.34
2022-08-10T12:53:48.857Z,101281.41
2022-08-10T12:56:26.208Z,101283.97
2022-08-10T12:58:58.689Z,101276.84
2022-08-10T13:02:09.856Z,101279.94
2022-08-10T13:04:22.834Z,101285.13
2022-08-10T13:06:54.532Z,101280.03
2022-08-10T13:09:26.378Z,101269.66
2022-08-10T13:12:35.974Z,101271.28
2022-08-10T13:14:49.107Z,101261.91
2022-08-10T13:17:24.699Z,101263.22
2022-08-10T13:20:17.744Z,101253.59
2022-08-10T13:22:48.824Z,101258.66
2022-08-10T13:25:20.022Z,101250.84
2022-08-10T13:28:03.371Z,101249.13
2022-08-10T13:30:37.529Z,101245.56
2022-08-10T13:33:07.465Z,101246.94
2022-08-10T13:35:39.957Z,101240.06
2022-08-10T13:38:12.723Z,101236.28
2022-08-10T13:40:42.378Z,101230.03
2022-08-10T13:43:11.027Z,101229.47
2022-08-10T13:45:50.021Z,101228.66
2022-08-10T13:48:20.857Z,101225.59
2022-08-10T13:50:52.349Z,101220.47
2022-08-10T13:53:33.820Z,101223.75
2022-08-10T13:56:05.376Z,101214.03
2022-08-10T13:58:41.851Z,101219.91
2022-08-10T14:01:12.589Z,101213.44
2022-08-10T14:03:44.002Z,101205.78
2022-08-10T14:06:15.687Z,101214.91
2022-08-10T14:08:48.339Z,101206.81
2022-08-10T14:11:23.022Z,101207.63
2022-08-10T14:13:57.206Z,101204.81
2022-08-10T14:16:25.810Z,101200.94
2022-08-10T14:18:54.490Z,101200.50
2022-08-10T14:21:22.702Z,101206.66
2022-08-10T14:23:52.876Z,101193.00
2022-08-10T14:26:25.965Z,101186.91
2022-08-10T14:28:57.741Z,101176.38
2022-08-10T14:31:30.429Z,101181.50
2022-08-10T14:33:59.374Z,101177.09
2022-08-10T14:36:34.145Z,101174.94
2022-08-10T14:39:03.645Z,101182.06
2022-08-10T14:42:01.354Z,101177.09
2022-08-10T14:44:22.501Z,101165.97
2022-08-10T14:46:55.750Z,101169.63
2022-08-10T14:49:25.663Z,101166.16
2022-08-10T14:51:59.601Z,101161.69
2022-08-10T14:54:29.865Z,101161.94
2022-08-10T14:57:11.447Z,101162.91
2022-08-10T15:00:23.155Z,101159.47
2022-08-10T15:02:40.873Z,101164.38
2022-08-10T15:05:20.105Z,101165.50
2022-08-10T15:07:59.174Z,101159.34
2022-08-10T15:10:30.289Z,101166.25
2022-08-10T15:13:03.607Z,101154.50
2022-08-10T15:15:49.946Z,101152.78
2022-08-10T15:18:26.508Z,101162.16
2022-08-10T15:21:00.528Z,101147.88
2022-08-10T15:23:32.305Z,101156.66
2022-08-10T15:26:11.329Z,101159.84
2022-08-10T15:29:22.150Z,101157.03
2022-08-10T15:31:33.786Z,101148.34
2022-08-10T15:34:21.442Z,101148.78
2022-08-10T15:37:39.554Z,101144.38
2022-08-10T15:40:25.692Z,101150.09
2022-08-10T15:42:59.318Z,101141.22
2022-08-10T15:45:28.629Z,101138.16
2022-08-10T15:48:03.062Z,101127.16
2022-08-10T15:50:35.092Z,101127.59
2022-08-10T15:53:15.934Z,101122.91
2022-08-10T15:55:48.700Z,101126.28
2022-08-10T15:58:38.883Z,101120.16
2022-08-10T16:02:14.481Z,101123.97
2022-08-10T16:04:08.617Z,101117.81
2022-08-10T16:06:40.524Z,101111.19
2022-08-10T16:10:22.695Z,101115.38
2022-08-10T16:12:05.696Z,101110.72
2022-08-10T16:14:36.721Z,101108.66
2022-08-10T16:17:10.318Z,101105.22
2022-08-10T16:19:39.707Z,101099.72
2022-08-10T16:22:35.405Z,101095.13
2022-08-10T16:24:58.655Z,101089.81
2022-08-10T16:27:27.979Z,101095.31
2022-08-10T16:29:59.295Z,101105.00
2022-08-10T16:32:30.011Z,101101.84
2022-08-10T16:34:58.319Z,101093.88
2022-08-10T16:37:57.314Z,101095.91
2022-08-10T16:40:21.236Z,101093.09
2022-08-10T16:42:49.973Z,101092.88
2022-08-10T16:45:20.415Z,101092.47
2022-08-10T16:47:51.782Z,101092.16
2022-08-10T16:50:25.165Z,101091.25
2022-08-10T16:52:54.386Z,101086.66
2022-08-10T16:55:47.471Z,101086.78
2022-08-10T16:58:13.395Z,101081.50
2022-08-10T17:00:41.858Z,101082.22
2022-08-10T17:03:22.654Z,101084.84
2022-08-10T17:06:10.928Z,101079.69
2022-08-10T17:08:41.393Z,101075.75
2022-08-10T17:11:17.762Z,101070.38
2022-08-10T17:13:45.681Z,101073.84
2022-08-10T17:16:14.578Z,101080.56
2022-08-10T17:18:47.044Z,101074.47
2022-08-10T17:21:17.300Z,101083.41
2022-08-10T17:23:47.690Z,101068.66
2022-08-10T17:26:19.611Z,101070.56
2022-08-10T17:28:57.653Z,101080.88
2022-08-10T17:31:54.889Z,101067.94
2022-08-10T17:34:24.623Z,101072.84
2022-08-10T17:36:57.724Z,101075.28
2022-08-10T17:39:30.560Z,101077.81
2022-08-10T17:42:01.085Z,101083.22
2022-08-10T17:44:30.221Z,101075.47
2022-08-10T17:46:58.172Z,101080.03
2022-08-10T17:49:28.074Z,101080.91
2022-08-10T17:51:57.809Z,101077.06
2022-08-10T17:54:29.319Z,101075.19
2022-08-10T17:57:00.071Z,101080.56
2022-08-10T17:59:30.859Z,101079.44
2022-08-10T18:02:01.829Z,101077.00
2022-08-10T18:04:53.877Z,101081.28
2022-08-10T18:07:24.498Z,101079.00
2022-08-10T18:09:54.401Z,101091.41
2022-08-10T18:12:32.434Z,101079.50
2022-08-10T18:15:08.556Z,101077.19
2022-08-10T18:17:44.885Z,101082.31
2022-08-10T18:20:15.677Z,101087.22
2022-08-10T18:22:50.241Z,101088.09
2022-08-10T18:25:23.402Z,101089.06
2022-08-10T18:28:01.556Z,101090.81
2022-08-10T18:30:37.662Z,101093.69
2022-08-10T18:33:10.787Z,101090.03
2022-08-10T18:35:40.133Z,101089.91
2022-08-10T18:38:08.663Z,101101.22
2022-08-10T18:40:37.648Z,101087.72
2022-08-10T18:44:02.798Z,101098.41
2022-08-10T18:45:56.973Z,101097.16
2022-08-10T18:48:42.933Z,101093.19
2022-08-10T18:51:13.106Z,101101.22
2022-08-10T18:53:48.546Z,101104.25
2022-08-10T18:56:48.226Z,101096.44
2022-08-10T18:59:36.144Z,101105.78
2022-08-10T19:02:12.216Z,101104.44
2022-08-10T19:04:52.730Z,101119.00
2022-08-10T19:07:50.538Z,101118.75
2022-08-10T19:10:29.293Z,101122.84
2022-08-10T19:13:04.544Z,101125.59
2022-08-10T19:15:40.271Z,101125.59
2022-08-10T19:18:18.881Z,101137.84
2022-08-10T19:21:05.456Z,101130.19
2022-08-10T19:23:48.264Z,101138.13
2022-08-10T19:26:43.750Z,101133.16
2022-08-10T19:30:09.252Z,101130.66
2022-08-10T19:32:27.289Z,101137.19
2022-08-10T19:35:05.098Z,101135.28
2022-08-10T19:37:38.773Z,101140.22
2022-08-10T19:40:43.519Z,101145.72
2022-08-10T19:43:20.629Z,101147.09
2022-08-10T19:46:03.315Z,101148.47
2022-08-10T19:48:39.273Z,101152.03
2022-08-10T19:51:12.283Z,101143.81
2022-08-10T19:53:45.068Z,101146.53
2022-08-10T19:56:33.567Z,101153.13
2022-08-10T19:59:10.214Z,101146.84
2022-08-10T20:01:55.579Z,101152.34
2022-08-10T20:04:31.901Z,101158.06
2022-08-10T20:07:46.942Z,101150.69
2022-08-10T20:10:17.910Z,101159.72
2022-08-10T20:12:51.995Z,101158.91
2022-08-10T20:15:26.991Z,101161.38
2022-08-10T20:18:04.084Z,101161.63
2022-08-10T20:20:36.269Z,101165.44
2022-08-10T20:23:18.145Z,101166.53
2022-08-10T20:25:48.564Z,101165.72
2022-08-10T20:28:41.734Z,101163.78
2022-08-10T20:31:17.780Z,101169.78
2022-08-10T20:34:00.970Z,101172.50
2022-08-10T20:36:34.164Z,101165.66
2022-08-10T20:39:10.733Z,101177.94
2022-08-10T20:41:54.818Z,101177.06
2022-08-10T20:44:34.008Z,101180.38
2022-08-10T20:47:06.479Z,101176.25
2022-08-10T20:49:39.641Z,101180.31
2022-08-10T20:52:08.096Z,101184.13
2022-08-10T20:54:39.814Z,101175.88
2022-08-10T20:57:54.209Z,101167.38
2022-08-10T21:00:18.476Z,101181.25
2022-08-10T21:03:21.245Z,101177.13
2022-08-10T21:06:00.510Z,101174.63
2022-08-10T21:08:37.261Z,101176.53
2022-08-10T21:11:09.773Z,101179.53
2022-08-10T21:13:58.929Z,101175.41
2022-08-10T21:16:38.140Z,101180.84
2022-08-10T21:19:30.151Z,101181.91
2022-08-10T21:22:11.414Z,101187.31
2022-08-10T21:24:44.944Z,101176.59
2022-08-10T21:27:56.276Z,101175.53
2022-08-10T21:30:29.490Z,101171.41
2022-08-10T21:33:02.130Z,101174.31
2022-08-10T21:35:37.212Z,101171.59
2022-08-10T21:38:08.216Z,101176.22
2022-08-10T21:41:17.862Z,101181.06
2022-08-10T21:44:05.687Z,101179.44
2022-08-10T21:48:44.362Z,101186.44
2022-08-10T21:59:14.467Z,101170.91
2022-08-10T22:08:49.739Z,101167.19
2022-08-10T22:26:27.340Z,101180.91
2022-08-10T22:29:12.741Z,101173.22
2022-08-10T22:32:10.597Z,101184.03
2022-08-10T22:35:04.249Z,101172.28
2022-08-10T22:37:58.095Z,101181.78
2022-08-10T22:40:54.239Z,101177.34
2022-08-10T22:43:42.486Z,101176.47
2022-08-10T22:46:34.301Z,101177.28
2022-08-10T22:49:01.406Z,101173.69
2022-08-10T22:51:49.058Z,101177.47
2022-08-10T22:54:51.491Z,101175.31
2022-08-10T22:57:47.525Z,101183.16
2022-08-10T23:00:52.206Z,101184.41
2022-08-10T23:04:48.004Z,101184.03
2022-08-10T23:07:14.385Z,101189.28
2022-08-10T23:10:02.482Z,101186.50
2022-08-10T23:13:35.600Z,101190.78
2022-08-10T23:16:24.793Z,101199.69
2022-08-10T23:19:25.737Z,101184.84
2022-08-10T23:22:04.825Z,101195.22
2022-08-10T23:24:36.983Z,101197.53
2022-08-10T23:27:12.334Z,101197.53
2022-08-10T23:30:09.275Z,101201.06
2022-08-10T23:32:31.601Z,101189.31
2022-08-10T23:36:30.254Z,101192.19
2022-08-10T23:37:49.984Z,101198.28
2022-08-10T23:40:18.971Z,101194.91
2022-08-10T23:42:48.996Z,101197.44
2022-08-10T23:45:19.659Z,101195.25
2022-08-10T23:47:49.787Z,101194.09
2022-08-10T23:50:19.730Z,101193.44
2022-08-10T23:52:53.172Z,101194.75
2022-08-10T23:55:24.353Z,101192.22
2022-08-10T23:57:55.235Z,101192.94
